Accueil
METAR-TAF:

METAR-TAF

Aéroports :

Belize City, Belize

Aéroport international Philip S. W. Goldson

latitude: 17-32N, longitude: 088-18W, altitude: 5 m

Observation

Le bulletin a été fait il y a 1 heure et 3 minutes, à 23:00 UTC
Vent 9 kt de est
Température 28°C
Humidité 79%
Pression 1014 hPa
Visibilité 10 km ou plus
Quelques nuages à une hauteur de 2100 ft

METAR: MZBZ 202300Z 08009KT 9999 FEW021 28/24 A2996 Q1014 NOSIG

Heure: 18:03 (00:03 UTC)

Prévision

Le bulletin a été fait il y a 2 heures et 48 minutes, à 21:15 UTC
Prévision valable du 21 à 00 UTC au 21 à 24 UTC
Vent 10 kt de est
Visibilité 10 km ou plus
Nuages épars à une hauteur de 2200 ft
Probabilité 30% :
Temporairement
du 21 à 06 UTC au 21 à 12 UTC
Visibilité: 5000 m
Nuages fragmentés à une hauteur de 1500 ft
averses de pluie

TAF: MZBZ 202115Z 2100/2124 08010KT 9999 SCT022 PROB30 TEMPO 2106/2112 5000 SHRA BKN015

Observations et prévisions météorologiques de plus de 4000 aéroports (messages METAR et TAF).

Les stations disponibles sont représentées par des disques jaunes et rouges sur la carte.

Passer la souris dessus pour voir le nom de la station.

Cliquer dessus pour voir les observations et prévisions météorologiques.

Pour changer de carte: cliquez sur les boutons verts avec une croix noire pour zoomer, sur le bouton vert avec un tiret pour effectuer un zoom arrière, ou sur les flèches vertes pour les cartes adjacentes.


METAR-TAF: